Time;durP1;ratioP1;P1;durP2;ratioP2;P2;SDS_P1;SDS_P2;PMS_P1;PMS_P2;Temp;Humidity;BMP_temperature;BMP_pressure;BME280_temperature;BME280_humidity;BME280_pressure;Samples;Min_cycle;Max_cycle;Signal;HPM_P1;HPM_P2
2023/03/18 00:01:58;;;;;;;;;;;;;;;9.89;nan;100047.53;4997919;28;19925;-89
2023/03/18 00:04:25;;;;;;;;;;;;;;;9.96;nan;100045.91;5010364;28;19972;-87
2023/03/18 00:06:51;;;;;;;;;;;;;;;9.96;nan;100047.69;5014274;28;19930;-89
2023/03/18 00:09:19;;;;;;;;;;;;;;;9.98;nan;100045.72;4992820;28;19922;-87
2023/03/18 00:11:55;;;;;;;;;;;;;;;10.03;nan;100045.25;5001241;28;20302;-89
2023/03/18 00:14:21;;;;;;;;;;;;;;;10.10;nan;100054.19;4995588;28;19924;-89
2023/03/18 00:16:47;;;;;;;;;;;;;;;10.15;nan;100054.53;4996708;28;19917;-89
2023/03/18 00:19:13;;;;;;;;;;;;;;;10.10;nan;100051.53;4995894;28;19964;-89
2023/03/18 00:21:41;;;;;;;;;;;;;;;10.16;nan;100049.09;4996707;28;20334;-88
2023/03/18 00:24:38;;;;;;;;;;;;;;;10.24;nan;100058.03;4996145;28;19917;-89
2023/03/18 00:27:05;;;;;;;;;;;;;;;10.28;nan;100054.94;5014807;28;19922;-89
2023/03/18 00:29:30;;;;;;;;;;;;;;;10.33;nan;100065.03;4983628;28;19936;-87
2023/03/18 00:31:59;;;;;;;;;;;;;;;10.33;nan;100057.91;4982017;28;19961;-87
2023/03/18 00:34:24;;;;;;;;;;;;;;;10.33;nan;100062.38;4994650;28;19960;-87
2023/03/18 00:36:55;;;;;;;;;;;;;;;10.33;nan;100063.19;5022903;28;19913;-87
2023/03/18 00:39:25;;;;;;;;;;;;;;;10.36;nan;100073.44;5018608;28;19925;-87
2023/03/18 00:41:51;;;;;;;;;;;;;;;10.40;nan;100073.94;5019372;28;19918;-87
2023/03/18 00:44:16;;;;;;;;;;;;;;;10.43;nan;100076.25;4999479;28;20040;-87
2023/03/18 00:46:42;;;;;;;;;;;;;;;10.45;nan;100079.56;5009841;28;20414;-87
2023/03/18 00:49:07;;;;;;;;;;;;;;;10.47;nan;100080.25;5003148;28;19917;-87
2023/03/18 00:51:36;;;;;;;;;;;;;;;10.47;nan;100079.44;4981518;28;19917;-89
2023/03/18 00:54:08;;;;;;;;;;;;;;;10.40;nan;100079.25;4995790;28;19918;-90
2023/03/18 00:56:33;;;;;;;;;;;;;;;10.40;nan;100080.06;4979048;28;19918;-89
2023/03/18 00:58:59;;;;;;;;;;;;;;;10.44;nan;100082.38;4979118;28;19936;-89
2023/03/18 01:01:25;;;;;;;;;;;;;;;10.47;nan;100076.78;4979025;28;19984;-90
2023/03/18 01:03:50;;;;;;;;;;;;;;;10.50;nan;100079.91;4980605;28;19996;-89
2023/03/18 01:06:19;;;;;;;;;;;;;;;10.47;nan;100082.88;4987205;28;20454;-89
2023/03/18 01:08:45;;;;;;;;;;;;;;;10.46;nan;100083.03;4978428;28;20198;-90
2023/03/18 01:11:10;;;;;;;;;;;;;;;10.46;nan;100077.75;4978784;28;19953;-88
2023/03/18 01:13:36;;;;;;;;;;;;;;;10.47;nan;100082.88;4984318;28;19924;-87
2023/03/18 01:16:02;;;;;;;;;;;;;;;10.51;nan;100078.94;5004811;28;20522;-89
2023/03/18 01:18:28;;;;;;;;;;;;;;;10.53;nan;100074.28;4993183;28;19933;-87
2023/03/18 01:20:54;;;;;;;;;;;;;;;10.54;nan;100070.69;5011137;28;19921;-87
2023/03/18 01:23:19;;;;;;;;;;;;;;;10.51;nan;100075.44;4996149;28;19928;-87
2023/03/18 01:25:45;;;;;;;;;;;;;;;10.49;nan;100072.16;5018830;28;19929;-86
2023/03/18 01:28:11;;;;;;;;;;;;;;;10.50;nan;100081.75;5016963;28;20020;-87
2023/03/18 01:30:37;;;;;;;;;;;;;;;10.51;nan;100081.59;4999532;28;19976;-87
2023/03/18 01:33:06;;;;;;;;;;;;;;;10.52;nan;100085.06;5019720;28;19926;-87
2023/03/18 01:35:33;;;;;;;;;;;;;;;10.51;nan;100080.72;5001951;28;20350;-89
2023/03/18 01:37:58;;;;;;;;;;;;;;;10.51;nan;100080.72;4989058;28;19921;-90
2023/03/18 01:40:24;;;;;;;;;;;;;;;10.52;nan;100079.75;4995795;28;19921;-89
2023/03/18 01:43:08;;;;;;;;;;;;;;;10.50;nan;100079.09;4993764;28;19964;-89
2023/03/18 01:45:33;;;;;;;;;;;;;;;10.49;nan;100083.56;4993303;28;19937;-87
2023/03/18 01:47:59;;;;;;;;;;;;;;;10.51;nan;100088.66;4992824;28;19922;-87
2023/03/18 01:50:27;;;;;;;;;;;;;;;10.51;nan;100081.59;4990103;28;19928;-87
2023/03/18 01:52:55;;;;;;;;;;;;;;;10.51;nan;100078.09;5010314;28;19937;-88
2023/03/18 01:55:22;;;;;;;;;;;;;;;10.49;nan;100077.44;4994122;28;19925;-87
2023/03/18 01:57:48;;;;;;;;;;;;;;;10.46;nan;100077.75;4986777;28;20379;-87
2023/03/18 02:00:15;;;;;;;;;;;;;;;10.48;nan;100081.06;5024947;28;19924;-89
2023/03/18 02:02:42;;;;;;;;;;;;;;;10.50;nan;100079.91;4994756;28;19932;-87
2023/03/18 02:05:10;;;;;;;;;;;;;;;10.54;nan;100080.44;4975738;28;19917;-87
2023/03/18 02:07:36;;;;;;;;;;;;;;;10.54;nan;100072.50;5014966;28;19921;-87
2023/03/18 02:10:04;;;;;;;;;;;;;;;10.54;nan;100068.03;5005686;28;20491;-88
2023/03/18 02:12:32;;;;;;;;;;;;;;;10.54;nan;100056.63;4995634;28;19917;-89
2023/03/18 02:14:58;;;;;;;;;;;;;;;10.57;nan;100043.09;4996185;28;19917;-87
2023/03/18 02:17:28;;;;;;;;;;;;;;;10.59;nan;100041.09;4997197;28;19940;-87
2023/03/18 02:20:19;;;;;;;;;;;;;;;10.60;nan;100040.09;4995991;28;20437;-88
2023/03/18 02:22:49;;;;;;;;;;;;;;;10.60;nan;100045.41;5005574;28;20264;-88
2023/03/18 02:25:36;;;;;;;;;;;;;;;10.59;nan;100052.50;4996933;28;19934;-88
2023/03/18 02:28:02;;;;;;;;;;;;;;;10.57;nan;100056.31;4997201;28;20406;-88
2023/03/18 02:30:37;;;;;;;;;;;;;;;10.54;nan;100059.28;5011848;28;19964;-86
2023/03/18 02:33:02;;;;;;;;;;;;;;;10.53;nan;100065.53;4987935;28;19929;-85
2023/03/18 02:35:28;;;;;;;;;;;;;;;10.53;nan;100058.44;5000103;28;20103;-85
2023/03/18 02:37:54;;;;;;;;;;;;;;;10.54;nan;100065.38;5008706;28;20004;-86
2023/03/18 02:40:19;;;;;;;;;;;;;;;10.52;nan;100062.09;4989954;28;19922;-86
2023/03/18 02:42:44;;;;;;;;;;;;;;;10.52;nan;100071.84;5009343;28;19927;-86
2023/03/18 02:45:17;;;;;;;;;;;;;;;10.50;nan;100069.34;4992563;28;19924;-86
2023/03/18 02:47:43;;;;;;;;;;;;;;;10.45;nan;100079.56;5010213;28;19965;-86
2023/03/18 02:50:08;;;;;;;;;;;;;;;10.41;nan;100089.63;5004322;28;19918;-86
2023/03/18 02:52:34;;;;;;;;;;;;;;;10.38;nan;100081.22;5001855;28;19918;-86
2023/03/18 02:55:00;;;;;;;;;;;;;;;10.37;nan;100079.56;4999147;28;19918;-86
2023/03/18 02:57:25;;;;;;;;;;;;;;;10.39;nan;100078.41;4992315;28;19917;-86
2023/03/18 02:59:50;;;;;;;;;;;;;;;10.41;nan;100083.53;4989321;28;20167;-86
2023/03/18 03:02:16;;;;;;;;;;;;;;;10.41;nan;100084.34;4988789;28;19956;-86
2023/03/18 03:04:42;;;;;;;;;;;;;;;10.43;nan;100084.19;4990282;28;19921;-86
2023/03/18 03:07:07;;;;;;;;;;;;;;;10.46;nan;100083.03;5003989;28;20336;-86
2023/03/18 03:09:32;;;;;;;;;;;;;;;10.48;nan;100089.81;4991160;28;19960;-86
2023/03/18 03:11:57;;;;;;;;;;;;;;;10.49;nan;100080.09;4993801;28;19933;-89
2023/03/18 03:14:23;;;;;;;;;;;;;;;10.48;nan;100078.44;4989629;28;19929;-88
2023/03/18 03:16:48;;;;;;;;;;;;;;;10.51;nan;100086.03;4993887;28;19921;-86
2023/03/18 03:19:14;;;;;;;;;;;;;;;10.49;nan;100085.38;4993235;28;19928;-86
2023/03/18 03:21:39;;;;;;;;;;;;;;;10.49;nan;100086.22;4995416;28;19921;-88
2023/03/18 03:24:05;;;;;;;;;;;;;;;10.49;nan;100083.56;4994853;28;19917;-89
2023/03/18 03:26:33;;;;;;;;;;;;;;;10.42;nan;100090.47;4994898;28;19975;-88
2023/03/18 03:28:59;;;;;;;;;;;;;;;10.35;nan;100100.03;4995529;28;19925;-88
2023/03/18 03:31:25;;;;;;;;;;;;;;;10.32;nan;100098.56;4999079;28;20338;-88
2023/03/18 03:33:51;;;;;;;;;;;;;;;10.33;nan;100097.56;4996325;28;19923;-88
2023/03/18 03:36:17;;;;;;;;;;;;;;;10.34;nan;100095.72;4994705;28;19998;-89
2023/03/18 03:38:42;;;;;;;;;;;;;;;10.31;nan;100102.16;4993482;28;19961;-86
2023/03/18 03:41:11;;;;;;;;;;;;;;;10.37;nan;100098.06;4992886;28;20297;-86
2023/03/18 03:43:37;;;;;;;;;;;;;;;10.32;nan;100093.28;4991566;28;19930;-86
2023/03/18 03:46:02;;;;;;;;;;;;;;;10.35;nan;100087.66;4989873;28;20324;-86
2023/03/18 03:48:28;;;;;;;;;;;;;;;10.38;nan;100095.25;4990001;28;19933;-86
2023/03/18 03:50:53;;;;;;;;;;;;;;;10.42;nan;100098.41;4995936;28;20528;-86
2023/03/18 03:53:19;;;;;;;;;;;;;;;10.38;nan;100100.53;4984768;28;19917;-86
2023/03/18 03:55:44;;;;;;;;;;;;;;;10.33;nan;100113.41;4987558;28;20310;-86
2023/03/18 03:58:09;;;;;;;;;;;;;;;10.33;nan;100109.94;4986192;28;19918;-86
2023/03/18 04:00:34;;;;;;;;;;;;;;;10.38;nan;100105.81;5006590;28;19964;-86
2023/03/18 04:03:00;;;;;;;;;;;;;;;10.38;nan;100100.53;4991151;28;20012;-86
2023/03/18 04:05:25;;;;;;;;;;;;;;;10.47;nan;100105.88;5005424;28;19918;-86
2023/03/18 04:07:51;;;;;;;;;;;;;;;10.50;nan;100116.09;4987782;28;19984;-85
2023/03/18 04:10:17;;;;;;;;;;;;;;;10.52;nan;100119.41;5015023;28;19924;-85
2023/03/18 04:12:44;;;;;;;;;;;;;;;10.51;nan;100118.59;5004913;28;20011;-86
2023/03/18 04:15:09;;;;;;;;;;;;;;;10.52;nan;100119.41;5013118;28;19928;-86
2023/03/18 04:17:35;;;;;;;;;;;;;;;10.55;nan;100113.78;5013008;28;19925;-86
2023/03/18 04:20:00;;;;;;;;;;;;;;;10.57;nan;100111.81;4991256;28;19923;-86
2023/03/18 04:22:26;;;;;;;;;;;;;;;10.60;nan;100125.53;5012287;28;20237;-86
2023/03/18 04:24:52;;;;;;;;;;;;;;;10.62;nan;100112.16;4988498;28;19922;-86
2023/03/18 04:27:17;;;;;;;;;;;;;;;10.67;nan;100116.97;5008961;28;19925;-86
2023/03/18 04:29:43;;;;;;;;;;;;;;;10.69;nan;100112.34;4994680;28;20484;-86
2023/03/18 04:32:08;;;;;;;;;;;;;;;10.68;nan;100116.81;4994483;28;19922;-86
2023/03/18 04:34:33;;;;;;;;;;;;;;;10.68;nan;100118.59;5009904;28;19928;-86
2023/03/18 04:36:58;;;;;;;;;;;;;;;10.69;nan;100107.06;4998506;28;19924;-88
2023/03/18 04:39:24;;;;;;;;;;;;;;;10.67;nan;100109.84;4999284;28;19917;-87
2023/03/18 04:41:49;;;;;;;;;;;;;;;10.69;nan;100115.81;4999837;28;19929;-88
2023/03/18 04:44:16;;;;;;;;;;;;;;;10.70;nan;100103.41;5001618;28;19918;-88
2023/03/18 04:46:42;;;;;;;;;;;;;;;10.71;nan;100111.19;5019974;28;19918;-88
2023/03/18 04:49:10;;;;;;;;;;;;;;;10.76;nan;100110.72;5002204;28;19921;-88
2023/03/18 04:51:36;;;;;;;;;;;;;;;10.80;nan;100110.22;5002628;28;19917;-88
2023/03/18 04:54:02;;;;;;;;;;;;;;;10.88;nan;100116.50;5001055;28;19925;-88
2023/03/18 04:56:30;;;;;;;;;;;;;;;10.93;nan;100120.31;4989389;28;20001;-88
2023/03/18 04:58:55;;;;;;;;;;;;;;;10.96;nan;100109.38;5017299;28;19968;-88
2023/03/18 05:01:33;;;;;;;;;;;;;;;10.99;nan;100116.19;5018394;28;20291;-88
2023/03/18 05:03:58;;;;;;;;;;;;;;;10.99;nan;100118.84;5001280;28;19924;-88
2023/03/18 05:06:25;;;;;;;;;;;;;;;10.99;nan;100110.91;5002393;28;19917;-87
2023/03/18 05:08:52;;;;;;;;;;;;;;;10.98;nan;100115.34;5017790;28;19980;-88
2023/03/18 05:11:18;;;;;;;;;;;;;;;10.96;nan;100119.97;5010243;28;20048;-86
2023/03/18 05:13:43;;;;;;;;;;;;;;;10.90;nan;100123.28;5022567;28;19931;-86
2023/03/18 05:16:08;;;;;;;;;;;;;;;10.87;nan;100123.63;5009704;28;19949;-86
2023/03/18 05:18:34;;;;;;;;;;;;;;;10.83;nan;100133.69;5008263;28;19928;-85
2023/03/18 05:21:00;;;;;;;;;;;;;;;10.81;nan;100133.00;5005953;28;19929;-86
2023/03/18 05:23:25;;;;;;;;;;;;;;;10.84;nan;100138.00;4999245;28;19926;-86
2023/03/18 05:25:50;;;;;;;;;;;;;;;10.87;nan;100133.34;5021583;28;19925;-86
2023/03/18 05:28:17;;;;;;;;;;;;;;;10.93;nan;100138.81;4999876;28;19925;-86
2023/03/18 05:30:42;;;;;;;;;;;;;;;11.00;nan;100133.72;5002351;28;19929;-85
2023/03/18 05:33:07;;;;;;;;;;;;;;;11.06;nan;100127.78;5008592;28;20420;-87
2023/03/18 05:35:32;;;;;;;;;;;;;;;11.10;nan;100128.25;4989332;28;19933;-87
2023/03/18 05:37:58;;;;;;;;;;;;;;;11.11;nan;100129.91;5021236;28;19921;-88
2023/03/18 05:40:24;;;;;;;;;;;;;;;11.10;nan;100129.06;5003820;28;19921;-87
2023/03/18 05:42:49;;;;;;;;;;;;;;;11.14;nan;100135.69;4998730;28;19924;-85
2023/03/18 05:45:14;;;;;;;;;;;;;;;11.17;nan;100132.72;4995288;28;19945;-85
2023/03/18 05:47:40;;;;;;;;;;;;;;;11.20;nan;100136.84;5005313;28;19971;-85
2023/03/18 05:50:05;;;;;;;;;;;;;;;11.21;nan;100144.63;5012068;28;19918;-86
2023/03/18 05:52:30;;;;;;;;;;;;;;;11.24;nan;100146.94;5008668;28;19922;-86
2023/03/18 05:54:56;;;;;;;;;;;;;;;11.27;nan;100144.00;5015353;28;20388;-88
2023/03/18 05:57:21;;;;;;;;;;;;;;;11.30;nan;100142.81;4998236;28;19918;-89
2023/03/18 05:59:47;;;;;;;;;;;;;;;11.32;nan;100130.25;4997627;28;19918;-90
2023/03/18 06:02:12;;;;;;;;;;;;;;;11.34;nan;100140.66;4997053;28;19917;-88
2023/03/18 06:04:39;;;;;;;;;;;;;;;11.36;nan;100144.78;4997523;28;19925;-89
2023/03/18 06:07:04;;;;;;;;;;;;;;;11.40;nan;100142.66;4996722;28;20027;-88
2023/03/18 06:09:32;;;;;;;;;;;;;;;11.44;nan;100141.31;4996977;28;20422;-89
2023/03/18 06:11:59;;;;;;;;;;;;;;;11.51;nan;100147.59;4996902;28;19968;-89
2023/03/18 06:14:28;;;;;;;;;;;;;;;11.67;nan;100146.75;4988991;28;19922;-86
2023/03/18 06:16:54;;;;;;;;;;;;;;;11.87;nan;100147.25;5002381;28;20438;-86
2023/03/18 06:19:20;;;;;;;;;;;;;;;11.97;nan;100149.72;5011452;28;19968;-86
2023/03/18 06:21:46;;;;;;;;;;;;;;;12.10;nan;100142.84;4993825;28;20423;-88
2023/03/18 06:24:13;;;;;;;;;;;;;;;12.22;nan;100145.13;4994914;28;19945;-89
2023/03/18 06:26:39;;;;;;;;;;;;;;;12.26;nan;100149.09;4996566;28;19952;-90
2023/03/18 06:29:04;;;;;;;;;;;;;;;12.29;nan;100146.91;4995302;28;20635;-87
2023/03/18 06:31:30;;;;;;;;;;;;;;;12.30;nan;100148.59;5010782;28;19925;-86
2023/03/18 06:33:55;;;;;;;;;;;;;;;12.35;nan;100157.84;5012076;28;19921;-86
2023/03/18 06:36:20;;;;;;;;;;;;;;;12.41;nan;100154.50;4989858;28;19968;-86
2023/03/18 06:38:49;;;;;;;;;;;;;;;12.42;nan;100167.59;5004578;28;20534;-86
2023/03/18 06:41:15;;;;;;;;;;;;;;;12.45;nan;100167.25;4991133;28;20334;-86
2023/03/18 06:43:40;;;;;;;;;;;;;;;12.49;nan;100165.09;4986010;28;20021;-86
2023/03/18 06:46:05;;;;;;;;;;;;;;;12.50;nan;100162.25;5013493;28;19925;-85
2023/03/18 06:48:31;;;;;;;;;;;;;;;12.57;nan;100158.91;4993774;28;20311;-86
2023/03/18 06:50:57;;;;;;;;;;;;;;;12.67;nan;100151.56;4995322;28;19960;-86
2023/03/18 06:53:22;;;;;;;;;;;;;;;12.73;nan;100153.53;4991686;28;19992;-86
2023/03/18 06:55:48;;;;;;;;;;;;;;;12.82;nan;100152.44;5010710;28;19921;-86
2023/03/18 06:58:13;;;;;;;;;;;;;;;13.01;nan;100158.31;5009064;28;20306;-86
2023/03/18 07:00:41;;;;;;;;;;;;;;;13.52;nan;100164.75;4993402;28;20315;-88
2023/03/18 07:03:06;;;;;;;;;;;;;;;14.18;nan;100162.25;4992841;28;19922;-87
2023/03/18 07:05:31;;;;;;;;;;;;;;;14.64;nan;100182.47;4995294;28;19927;-88
2023/03/18 07:07:57;;;;;;;;;;;;;;;14.89;nan;100177.63;4994602;28;19932;-87
2023/03/18 07:10:24;;;;;;;;;;;;;;;15.03;nan;100173.28;4994764;28;20382;-88
2023/03/18 07:12:51;;;;;;;;;;;;;;;15.04;nan;100174.91;5013111;28;19921;-88
2023/03/18 07:15:16;;;;;;;;;;;;;;;14.91;nan;100175.59;4996912;28;19979;-87
2023/03/18 07:17:42;;;;;;;;;;;;;;;14.76;nan;100182.81;4996214;28;19917;-88
2023/03/18 07:20:12;;;;;;;;;;;;;;;14.68;nan;100186.41;4995698;28;19921;-88
2023/03/18 07:22:38;;;;;;;;;;;;;;;14.73;nan;100188.50;4996738;28;19981;-88
2023/03/18 07:25:03;;;;;;;;;;;;;;;14.82;nan;100188.19;4997306;28;19940;-87
2023/03/18 07:27:29;;;;;;;;;;;;;;;14.90;nan;100189.09;4997839;28;20295;-87
2023/03/18 07:29:54;;;;;;;;;;;;;;;14.98;nan;100189.00;5012969;28;19922;-86
2023/03/18 07:32:19;;;;;;;;;;;;;;;14.89;nan;100193.59;4989060;28;19922;-85
2023/03/18 07:34:46;;;;;;;;;;;;;;;14.94;nan;100188.53;4986186;28;19925;-87
2023/03/18 07:37:12;;;;;;;;;;;;;;;15.14;nan;100196.75;4981733;28;19934;-88
2023/03/18 07:39:37;;;;;;;;;;;;;;;15.50;nan;100195.84;4976820;28;20086;-88
2023/03/18 07:42:03;;;;;;;;;;;;;;;15.92;nan;100200.31;4976528;28;20016;-85
2023/03/18 07:44:28;;;;;;;;;;;;;;;16.27;nan;100189.63;5009116;28;19922;-85
2023/03/18 07:46:53;;;;;;;;;;;;;;;16.66;nan;100193.53;5007616;28;19930;-85
2023/03/18 07:49:19;;;;;;;;;;;;;;;16.89;nan;100203.88;5002215;28;20012;-85
2023/03/18 07:51:44;;;;;;;;;;;;;;;17.26;nan;100196.38;5007841;28;19993;-85
2023/03/18 07:54:09;;;;;;;;;;;;;;;17.75;nan;100195.13;5009456;28;19921;-85
2023/03/18 07:56:35;;;;;;;;;;;;;;;18.28;nan;100207.63;4989362;28;19921;-85
2023/03/18 07:59:00;;;;;;;;;;;;;;;18.51;nan;100207.16;4989062;28;19929;-85
2023/03/18 08:01:26;;;;;;;;;;;;;;;18.80;nan;100191.59;4991004;28;19940;-86
2023/03/18 08:03:51;;;;;;;;;;;;;;;18.86;nan;100196.94;4983091;28;19960;-85
2023/03/18 08:06:17;;;;;;;;;;;;;;;19.07;nan;100200.31;5003785;28;19921;-85
2023/03/18 08:08:43;;;;;;;;;;;;;;;19.41;nan;100201.72;4996627;28;19925;-85
2023/03/18 08:11:09;;;;;;;;;;;;;;;19.53;nan;100197.31;5015555;28;19925;-85
2023/03/18 08:13:34;;;;;;;;;;;;;;;19.67;nan;100202.56;4991750;28;20137;-86
2023/03/18 08:16:00;;;;;;;;;;;;;;;19.87;nan;100202.41;5009655;28;19922;-85
2023/03/18 08:18:25;;;;;;;;;;;;;;;20.20;nan;100204.75;4983875;28;19933;-86
2023/03/18 08:20:51;;;;;;;;;;;;;;;20.46;nan;100205.53;4973131;28;19925;-86
2023/03/18 08:23:17;;;;;;;;;;;;;;;20.64;nan;100202.00;4977963;28;20008;-85
2023/03/18 08:25:42;;;;;;;;;;;;;;;20.57;nan;100202.13;4998265;28;19925;-88
2023/03/18 08:28:07;;;;;;;;;;;;;;;20.70;nan;100201.13;5005714;28;19921;-88
2023/03/18 08:30:33;;;;;;;;;;;;;;;20.51;nan;100208.34;5012878;28;19917;-90
2023/03/18 08:32:58;;;;;;;;;;;;;;;20.37;nan;100205.81;4996561;28;19921;-90
2023/03/18 08:35:24;;;;;;;;;;;;;;;20.31;nan;100216.66;4997825;28;20327;-88
2023/03/18 08:37:50;;;;;;;;;;;;;;;20.33;nan;100209.16;5000474;28;20023;-88
2023/03/18 08:40:16;;;;;;;;;;;;;;;20.57;nan;100207.50;4998028;28;19944;-87
2023/03/18 08:42:41;;;;;;;;;;;;;;;20.84;nan;100218.72;5016849;28;19918;-87
2023/03/18 08:45:11;;;;;;;;;;;;;;;21.10;nan;100219.41;4997259;28;20604;-87
2023/03/18 08:47:36;;;;;;;;;;;;;;;21.71;nan;100214.75;5016065;28;19922;-89
2023/03/18 08:50:01;;;;;;;;;;;;;;;22.26;nan;100212.56;5018790;28;19948;-88
2023/03/18 08:52:31;;;;;;;;;;;;;;;22.68;nan;100217.72;5010584;28;19987;-88
2023/03/18 08:54:56;;;;;;;;;;;;;;;22.81;nan;100221.19;5003112;28;19925;-87
2023/03/18 08:57:21;;;;;;;;;;;;;;;22.91;nan;100207.91;5018943;28;19924;-90
2023/03/18 08:59:48;;;;;;;;;;;;;;;23.03;nan;100214.09;4999439;28;20544;-87
2023/03/18 09:02:15;;;;;;;;;;;;;;;22.97;nan;100211.53;5006610;28;19964;-86
2023/03/18 09:04:41;;;;;;;;;;;;;;;22.58;nan;100214.00;4993959;28;19925;-87
2023/03/18 09:07:09;;;;;;;;;;;;;;;21.70;nan;100211.25;4995322;28;19953;-87
2023/03/18 09:09:35;;;;;;;;;;;;;;;20.86;nan;100211.25;4998358;28;20334;-87
2023/03/18 09:12:01;;;;;;;;;;;;;;;20.45;nan;100207.38;4995229;28;19926;-87
2023/03/18 09:14:26;;;;;;;;;;;;;;;20.43;nan;100217.53;5012093;28;19930;-87
2023/03/18 09:16:52;;;;;;;;;;;;;;;21.27;nan;100206.13;4993969;28;20181;-87
2023/03/18 09:19:18;;;;;;;;;;;;;;;22.28;nan;100206.91;5011724;28;20268;-87
2023/03/18 09:21:43;;;;;;;;;;;;;;;22.76;nan;100205.72;4994467;28;20013;-87
2023/03/18 09:24:09;;;;;;;;;;;;;;;23.33;nan;100202.19;5010973;28;19932;-87
2023/03/18 09:26:34;;;;;;;;;;;;;;;24.06;nan;100213.91;5011562;28;19925;-87
2023/03/18 09:29:00;;;;;;;;;;;;;;;24.53;nan;100199.97;5012523;28;19953;-88
2023/03/18 09:31:25;;;;;;;;;;;;;;;24.77;nan;100205.09;4995658;28;20307;-87
2023/03/18 09:33:51;;;;;;;;;;;;;;;24.92;nan;100191.72;5013696;28;19963;-87
2023/03/18 09:36:17;;;;;;;;;;;;;;;24.09;nan;100193.69;4990582;28;20383;-87
2023/03/18 09:38:42;;;;;;;;;;;;;;;23.08;nan;100181.00;4996459;28;20480;-87
2023/03/18 09:41:23;;;;;;;;;;;;;;;22.16;nan;100182.66;5011572;28;19921;-87
2023/03/18 09:43:56;;;;;;;;;;;;;;;21.45;nan;100184.53;5010675;28;19921;-87
2023/03/18 09:46:37;;;;;;;;;;;;;;;21.08;nan;100189.22;5006471;28;19976;-87
2023/03/18 09:49:13;;;;;;;;;;;;;;;22.62;nan;100189.03;5008708;28;20395;-87
2023/03/18 09:51:45;;;;;;;;;;;;;;;24.16;nan;100189.72;4993529;28;20391;-87
2023/03/18 09:54:19;;;;;;;;;;;;;;;25.25;nan;100189.09;4993901;28;19961;-88
2023/03/18 09:56:44;;;;;;;;;;;;;;;25.85;nan;100187.91;5014757;28;20490;-88
2023/03/18 09:59:16;;;;;;;;;;;;;;;26.57;nan;100177.47;5017073;28;19952;-87
2023/03/18 10:01:41;;;;;;;;;;;;;;;26.01;nan;100181.53;5013516;28;20008;-88
2023/03/18 10:04:15;;;;;;;;;;;;;;;25.40;nan;100170.25;4992979;28;20419;-88
2023/03/18 10:06:42;;;;;;;;;;;;;;;24.82;nan;100177.28;5011875;28;20327;-88
2023/03/18 10:09:10;;;;;;;;;;;;;;;24.37;nan;100171.88;5012414;28;19918;-87
2023/03/18 10:11:46;;;;;;;;;;;;;;;24.23;nan;100177.94;5007476;28;19921;-87
2023/03/18 10:14:22;;;;;;;;;;;;;;;24.13;nan;100184.81;4993567;28;20422;-88
2023/03/18 10:16:54;;;;;;;;;;;;;;;23.51;nan;100180.38;5008370;28;19932;-87
2023/03/18 10:19:19;;;;;;;;;;;;;;;23.31;nan;100182.75;4993028;28;19957;-88
2023/03/18 10:21:53;;;;;;;;;;;;;;;23.68;nan;100176.84;5014685;28;19932;-87
2023/03/18 10:24:37;;;;;;;;;;;;;;;24.45;nan;100172.50;4994382;28;19972;-88
2023/03/18 10:27:07;;;;;;;;;;;;;;;25.74;nan;100178.91;4995697;28;19925;-87
2023/03/18 10:29:39;;;;;;;;;;;;;;;26.45;nan;100185.78;5015463;28;19921;-86
2023/03/18 10:32:18;;;;;;;;;;;;;;;25.78;nan;100176.50;5011049;28;20439;-86
2023/03/18 10:35:02;;;;;;;;;;;;;;;24.80;nan;100178.34;5010281;28;20175;-87
2023/03/18 10:37:39;;;;;;;;;;;;;;;24.08;nan;100183.94;5006610;28;20885;-86
2023/03/18 10:40:16;;;;;;;;;;;;;;;23.34;nan;100181.47;5011692;28;19975;-87
2023/03/18 10:42:42;;;;;;;;;;;;;;;22.88;nan;100167.94;5006429;28;20031;-87
2023/03/18 10:45:24;;;;;;;;;;;;;;;23.14;nan;100161.16;4991835;28;19921;-86
2023/03/18 10:47:52;;;;;;;;;;;;;;;23.49;nan;100168.19;5012635;28;19929;-86
2023/03/18 10:50:27;;;;;;;;;;;;;;;23.77;nan;100169.19;5009046;28;19968;-86
2023/03/18 10:52:55;;;;;;;;;;;;;;;24.17;nan;100168.94;5010359;28;19921;-86
2023/03/18 10:55:22;;;;;;;;;;;;;;;25.22;nan;100168.78;4996594;28;19944;-87
2023/03/18 10:57:48;;;;;;;;;;;;;;;26.12;nan;100176.16;4993147;28;19936;-87
2023/03/18 11:00:22;;;;;;;;;;;;;;;27.33;nan;100171.34;5011006;28;20000;-87
2023/03/18 11:02:47;;;;;;;;;;;;;;;28.13;nan;100168.00;4982311;28;20066;-87
2023/03/18 11:05:23;;;;;;;;;;;;;;;28.47;nan;100170.84;4988751;28;19941;-86
2023/03/18 11:07:59;;;;;;;;;;;;;;;28.34;nan;100168.69;4992108;28;19932;-87
2023/03/18 11:10:27;;;;;;;;;;;;;;;27.93;nan;100172.38;4975121;28;19925;-87
2023/03/18 11:13:01;;;;;;;;;;;;;;;27.86;nan;100166.41;4986847;28;19925;-87
2023/03/18 11:15:28;;;;;;;;;;;;;;;28.43;nan;100161.59;4992855;28;19922;-87
2023/03/18 11:17:57;;;;;;;;;;;;;;;29.11;nan;100163.69;4993559;28;19925;-87
2023/03/18 11:20:41;;;;;;;;;;;;;;;29.82;nan;100166.88;5009796;28;20494;-87
2023/03/18 11:23:13;;;;;;;;;;;;;;;30.54;nan;100158.66;4993780;28;19921;-87
2023/03/18 11:25:39;;;;;;;;;;;;;;;31.24;nan;100157.06;4993629;28;19921;-87
2023/03/18 11:28:06;;;;;;;;;;;;;;;31.85;nan;100156.00;4995374;28;20003;-88
2023/03/18 11:30:43;;;;;;;;;;;;;;;32.18;nan;100158.66;5010202;28;19921;-86
2023/03/18 11:33:09;;;;;;;;;;;;;;;31.81;nan;100167.84;5000660;28;19917;-87
2023/03/18 11:35:49;;;;;;;;;;;;;;;31.49;nan;100164.88;4993192;28;19925;-86
2023/03/18 11:38:17;;;;;;;;;;;;;;;31.86;nan;100157.59;4999024;28;20375;-86
2023/03/18 11:40:42;;;;;;;;;;;;;;;31.15;nan;100147.94;4993114;28;19922;-87
2023/03/18 11:43:19;;;;;;;;;;;;;;;30.57;nan;100149.06;5010433;28;20412;-86
2023/03/18 11:45:51;;;;;;;;;;;;;;;30.05;nan;100148.88;4980361;28;20012;-87
2023/03/18 11:48:22;;;;;;;;;;;;;;;30.38;nan;100140.88;4980910;28;19932;-87
2023/03/18 11:51:01;;;;;;;;;;;;;;;30.04;nan;100141.81;4991768;28;19921;-87
2023/03/18 11:53:26;;;;;;;;;;;;;;;29.45;nan;100143.78;4990338;28;20016;-87
2023/03/18 11:55:58;;;;;;;;;;;;;;;28.73;nan;100138.06;4997080;28;20205;-86
2023/03/18 11:58:36;;;;;;;;;;;;;;;27.98;nan;100136.22;4998102;28;19944;-89
2023/03/18 12:01:25;;;;;;;;;;;;;;;27.72;nan;100128.13;5016951;28;20071;-88
2023/03/18 12:03:59;;;;;;;;;;;;;;;26.71;nan;100129.75;4987249;28;20222;-88
2023/03/18 12:06:29;;;;;;;;;;;;;;;26.13;nan;100132.56;5006884;28;19989;-88
2023/03/18 12:09:07;;;;;;;;;;;;;;;25.21;nan;100132.75;4996422;28;19922;-88
2023/03/18 12:11:45;;;;;;;;;;;;;;;24.80;nan;100118.03;4984485;28;20568;-89
2023/03/18 12:14:29;;;;;;;;;;;;;;;24.50;nan;100116.69;4993410;28;19926;-86
2023/03/18 12:17:00;;;;;;;;;;;;;;;24.22;nan;100114.97;4992575;28;20012;-87
2023/03/18 12:19:25;;;;;;;;;;;;;;;23.63;nan;100122.81;5005861;28;20447;-87
2023/03/18 12:21:57;;;;;;;;;;;;;;;23.85;nan;100123.69;4999083;28;19929;-87
2023/03/18 12:24:40;;;;;;;;;;;;;;;23.56;nan;100114.06;4994822;28;19929;-87
2023/03/18 12:27:14;;;;;;;;;;;;;;;22.97;nan;100120.66;4983471;28;19926;-88
2023/03/18 12:29:39;;;;;;;;;;;;;;;22.75;nan;100119.72;4990230;28;19956;-88
2023/03/18 12:32:11;;;;;;;;;;;;;;;22.43;nan;100106.75;4994098;28;19926;-88
2023/03/18 12:34:42;;;;;;;;;;;;;;;22.52;nan;100113.38;4994382;28;19925;-88
2023/03/18 12:37:16;;;;;;;;;;;;;;;22.52;nan;100113.38;5000121;28;19918;-89
2023/03/18 12:40:00;;;;;;;;;;;;;;;22.32;nan;100105.72;4996879;28;19941;-88
2023/03/18 12:42:26;;;;;;;;;;;;;;;;;;4989230;28;19926;-89
2023/03/18 12:45:01;;;;;;;;;;;;;;;21.95;nan;100100.66;4992459;28;19932;-89
2023/03/18 12:47:30;;;;;;;;;;;;;;;21.96;nan;100104.16;4978700;28;19922;-88
2023/03/18 12:50:04;;;;;;;;;;;;;;;21.81;nan;100100.09;4978129;28;19918;-88
2023/03/18 12:52:36;;;;;;;;;;;;;;;21.73;nan;100099.63;4996038;28;20554;-89
2023/03/18 12:55:35;;;;;;;;;;;;;;;21.72;nan;100095.31;4979541;28;19918;-90
2023/03/18 12:58:00;;;;;;;;;;;;;;;21.61;nan;100099.63;4971551;28;19922;-89
2023/03/18 13:00:32;;;;;;;;;;;;;;;21.57;nan;100098.44;4979503;28;19925;-88
2023/03/18 13:03:02;;;;;;;;;;;;;;;21.54;nan;100109.69;4997124;28;19924;-88